Time;durP1;ratioP1;P1;durP2;ratioP2;P2;SDS_P1;SDS_P2;PMS_P1;PMS_P2;Temp;Humidity;BMP_temperature;BMP_pressure;BME280_temperature;BME280_humidity;BME280_pressure;Samples;Min_cycle;Max_cycle;Signal;HPM_P1;HPM_P2
2023/12/25 00:01:41;;;;;;;0.30;0.30;;;;;;;;;;5044662;28;20205;-61
2023/12/25 00:04:08;;;;;;;0.20;0.20;;;;;;;;;;5046742;28;20218;-61
2023/12/25 00:06:35;;;;;;;0.20;0.20;;;;;;;;;;5037004;28;20200;-61
2023/12/25 00:09:03;;;;;;;0.87;0.30;;;;;;;;;;5032664;28;20646;-61
2023/12/25 00:11:30;;;;;;;0.40;0.10;;;9.70;99.90;;;;;;5037523;28;20274;-61
2023/12/25 00:13:57;;;;;;;0.63;0.20;;;;;;;;;;5039327;28;20220;-61
2023/12/25 00:16:26;;;;;;;0.00;0.00;;;;;;;;;;5033089;28;20205;-61
2023/12/25 00:18:55;;;;;;;0.10;0.00;;;;;;;;;;5033308;28;20239;-61
2023/12/25 00:21:22;;;;;;;0.27;0.10;;;;;;;;;;5036435;28;20211;-61
2023/12/25 00:23:49;;;;;;;0.37;0.20;;;;;;;;;;5032304;28;20224;-61
2023/12/25 00:26:16;;;;;;;0.20;0.20;;;;;;;;;;5019249;28;20205;-61
2023/12/25 00:28:43;;;;;;;0.10;0.10;;;;;;;;;;5011776;28;20207;-61
2023/12/25 00:31:11;;;;;;;0.10;0.10;;;;;;;;;;5027360;28;20223;-61
2023/12/25 00:33:39;;;;;;;0.10;0.10;;;9.90;99.90;;;;;;5041194;28;20224;-61
2023/12/25 00:36:06;;;;;;;0.13;0.10;;;;;;;;;;5032209;28;20212;-61
2023/12/25 00:38:34;;;;;;;0.00;0.00;;;;;;;;;;5032084;28;20206;-61
2023/12/25 00:41:01;;;;;;;0.10;0.07;;;10.00;99.90;;;;;;5031127;28;20200;-61
2023/12/25 00:43:27;;;;;;;0.10;0.10;;;10.00;99.90;;;;;;5043740;28;20227;-61
2023/12/25 00:45:54;;;;;;;0.20;0.20;;;9.90;99.90;;;;;;5018950;28;20195;-61
2023/12/25 00:48:22;;;;;;;0.30;0.30;;;;;;;;;;5012205;28;20359;-61
2023/12/25 00:50:50;;;;;;;0.20;0.20;;;9.90;99.90;;;;;;5025262;28;20219;-61
2023/12/25 00:53:17;;;;;;;0.30;0.30;;;9.80;99.90;;;;;;5043565;28;20286;-62
2023/12/25 00:55:44;;;;;;;0.20;0.20;;;9.80;99.90;;;;;;5038232;28;20257;-61
2023/12/25 00:58:11;;;;;;;0.20;0.20;;;9.80;99.90;;;;;;5032015;28;20208;-61
2023/12/25 01:00:38;;;;;;;0.20;0.20;;;;;;;;;;5015314;28;20251;-61
2023/12/25 01:03:05;;;;;;;0.83;0.30;;;;;;;;;;5015858;28;20289;-61
2023/12/25 01:05:33;;;;;;;0.70;0.20;;;;;;;;;;5040122;28;20731;-60
2023/12/25 01:08:01;;;;;;;2.20;0.30;;;;;;;;;;5036654;28;20255;-61
2023/12/25 01:10:29;;;;;;;0.30;0.20;;;;;;;;;;5044139;28;20274;-61
2023/12/25 01:12:55;;;;;;;0.20;0.20;;;9.50;99.90;;;;;;5021072;28;20730;-61
2023/12/25 01:15:22;;;;;;;0.10;0.10;;;9.60;99.90;;;;;;5041598;28;20201;-61
2023/12/25 01:17:50;;;;;;;0.10;0.10;;;;;;;;;;5031686;28;20240;-61
2023/12/25 01:20:17;;;;;;;0.20;0.20;;;;;;;;;;5031239;28;20212;-61
2023/12/25 01:22:44;;;;;;;0.17;0.17;;;9.40;99.90;;;;;;5034532;28;20302;-62
2023/12/25 01:25:12;;;;;;;0.20;0.20;;;8.60;99.90;;;;;;5043172;28;20606;-61
2023/12/25 01:27:41;;;;;;;0.20;0.20;;;;;;;;;;5044057;28;20288;-61
2023/12/25 01:30:10;;;;;;;0.20;0.20;;;;;;;;;;5039224;28;20205;-61
2023/12/25 01:32:37;;;;;;;0.57;0.57;;;9.40;99.90;;;;;;5031404;28;20283;-62
2023/12/25 01:35:04;;;;;;;0.23;0.23;;;;;;;;;;5031409;28;20216;-62
2023/12/25 01:37:31;;;;;;;0.33;0.30;;;9.10;99.90;;;;;;5031015;28;20217;-62
2023/12/25 01:39:58;;;;;;;0.47;0.20;;;9.20;99.90;;;;;;5042288;28;20574;-62
2023/12/25 01:42:27;;;;;;;0.20;0.20;;;9.20;99.90;;;;;;5028644;28;20228;-62
2023/12/25 01:44:54;;;;;;;0.40;0.13;;;9.30;99.90;;;;;;5029831;28;20201;-62
2023/12/25 01:47:21;;;;;;;0.30;0.30;;;9.30;99.90;;;;;;5031241;28;20263;-62
2023/12/25 01:49:49;;;;;;;0.10;0.10;;;9.30;99.90;;;;;;5030161;28;20212;-61
2023/12/25 01:52:16;;;;;;;0.43;0.20;;;;;;;;;;5038703;28;20271;-62
2023/12/25 01:54:45;;;;;;;0.20;0.20;;;9.40;99.90;;;;;;5047043;28;20271;-61
2023/12/25 01:57:12;;;;;;;0.20;0.20;;;9.40;99.90;;;;;;5030715;28;20720;-61
2023/12/25 01:59:41;;;;;;;0.20;0.20;;;9.50;99.90;;;;;;5029091;28;20202;-62
2023/12/25 02:02:08;;;;;;;0.20;0.20;;;;;;;;;;5030733;28;20202;-61
2023/12/25 02:04:35;;;;;;;0.30;0.30;;;;;;;;;;5032347;28;20788;-60
2023/12/25 02:07:03;;;;;;;0.20;0.20;;;9.30;99.90;;;;;;5013150;28;20213;-61
2023/12/25 02:09:30;;;;;;;1.10;0.20;;;9.30;99.90;;;;;;5010961;28;20202;-61
2023/12/25 02:11:59;;;;;;;0.20;0.20;;;9.20;99.90;;;;;;5023114;28;20576;-61
2023/12/25 02:14:26;;;;;;;1.40;0.33;;;9.20;99.90;;;;;;5025342;28;20277;-61
2023/12/25 02:16:58;;;;;;;0.20;0.20;;;9.20;99.90;;;;;;5038405;28;20203;-61
2023/12/25 02:19:29;;;;;;;0.30;0.30;;;;;;;;;;5045249;28;20731;-61
2023/12/25 02:21:57;;;;;;;0.20;0.20;;;;;;;;;;5050608;28;20208;-62
2023/12/25 02:24:29;;;;;;;0.17;0.17;;;;;;;;;;5050739;28;20656;-62
2023/12/25 02:27:01;;;;;;;0.30;0.20;;;;;;;;;;5029836;28;20259;-62
2023/12/25 02:29:28;;;;;;;0.60;0.40;;;;;;;;;;5037903;28;20196;-62
2023/12/25 02:31:55;;;;;;;0.40;0.40;;;;;;;;;;5050521;28;20275;-62
2023/12/25 02:34:23;;;;;;;0.27;0.27;;;;;;;;;;5030287;28;20700;-61
2023/12/25 02:36:53;;;;;;;0.40;0.30;;;;;;;;;;5030250;28;20204;-61
2023/12/25 02:39:21;;;;;;;0.20;0.20;;;;;;;;;;5027701;28;20664;-61
2023/12/25 02:41:48;;;;;;;3.70;0.33;;;9.20;99.90;;;;;;5040773;28;20855;-61
2023/12/25 02:44:17;;;;;;;0.30;0.30;;;9.20;99.90;;;;;;5043303;28;20684;-60
2023/12/25 02:46:44;;;;;;;0.50;0.50;;;9.10;99.90;;;;;;5030639;28;20232;-61
2023/12/25 02:49:11;;;;;;;1.50;0.43;;;9.10;99.90;;;;;;5029780;28;20696;-61
2023/12/25 02:51:38;;;;;;;0.30;0.30;;;9.10;99.90;;;;;;5029609;28;20778;-61
2023/12/25 02:54:05;;;;;;;0.20;0.20;;;9.00;99.90;;;;;;5033399;28;20306;-61
2023/12/25 02:56:32;;;;;;;0.67;0.67;;;9.10;99.90;;;;;;5038522;28;20207;-61
2023/12/25 02:58:59;;;;;;;0.30;0.30;;;8.90;99.90;;;;;;5030186;28;20251;-61
2023/12/25 03:01:27;;;;;;;0.40;0.30;;;8.90;99.90;;;;;;5033677;28;20201;-61
2023/12/25 03:03:54;;;;;;;0.20;0.20;;;9.00;99.90;;;;;;5039886;28;20772;-62
2023/12/25 03:06:21;;;;;;;2.97;0.20;;;8.90;99.90;;;;;;5041728;28;20200;-61
2023/12/25 03:08:48;;;;;;;0.30;0.30;;;9.00;99.90;;;;;;5052481;28;20233;-61
2023/12/25 03:11:15;;;;;;;0.30;0.27;;;8.90;99.90;;;;;;5053759;28;20224;-61
2023/12/25 03:13:42;;;;;;;0.50;0.30;;;8.90;99.90;;;;;;5053101;28;20270;-61
2023/12/25 03:16:09;;;;;;;0.37;0.37;;;8.90;99.90;;;;;;5053803;28;20262;-61
2023/12/25 03:18:38;;;;;;;0.87;0.30;;;8.90;99.90;;;;;;5043549;28;20258;-61
2023/12/25 03:21:05;;;;;;;1.03;0.10;;;8.90;99.90;;;;;;5046285;28;20331;-61
2023/12/25 03:23:32;;;;;;;0.60;0.40;;;8.90;99.90;;;;;;5053550;28;20278;-61
2023/12/25 03:25:59;;;;;;;0.20;0.20;;;8.90;99.90;;;;;;5053752;28;20200;-61
2023/12/25 03:28:27;;;;;;;1.07;0.30;;;;;;;;;;5053557;28;20261;-61
2023/12/25 03:30:54;;;;;;;0.47;0.27;;;9.20;99.90;;;;;;5034722;28;20564;-61
2023/12/25 03:33:21;;;;;;;0.30;0.30;;;9.20;99.90;;;;;;5032873;28;20274;-62
2023/12/25 03:35:50;;;;;;;0.30;0.20;;;9.10;99.90;;;;;;5033499;28;20213;-61
2023/12/25 03:38:18;;;;;;;0.30;0.30;;;9.20;99.90;;;;;;5030539;28;20209;-61
2023/12/25 03:40:45;;;;;;;0.20;0.20;;;9.10;99.90;;;;;;5033471;28;20268;-61
2023/12/25 03:43:12;;;;;;;0.97;0.20;;;9.10;99.90;;;;;;5035286;28;20653;-61
2023/12/25 03:45:39;;;;;;;0.50;0.20;;;9.10;99.90;;;;;;5044283;28;20258;-61
2023/12/25 03:48:06;;;;;;;0.10;0.10;;;9.10;99.90;;;;;;5033273;28;20259;-61
2023/12/25 03:50:32;;;;;;;0.30;0.30;;;9.00;99.90;;;;;;5033074;28;20208;-61
2023/12/25 03:53:01;;;;;;;1.17;0.50;;;9.00;99.90;;;;;;5037147;28;20302;-61
2023/12/25 03:55:27;;;;;;;0.20;0.20;;;9.00;99.90;;;;;;5049159;28;20194;-62
2023/12/25 03:57:54;;;;;;;0.20;0.20;;;9.00;99.90;;;;;;5052636;28;20204;-62
2023/12/25 04:00:21;;;;;;;0.30;0.20;;;9.00;99.90;;;;;;5052749;28;20203;-62
2023/12/25 04:02:48;;;;;;;0.40;0.40;;;9.00;99.90;;;;;;5040422;28;20292;-61
2023/12/25 04:05:15;;;;;;;0.40;0.13;;;9.00;99.90;;;;;;5042255;28;20197;-62
2023/12/25 04:07:42;;;;;;;0.10;0.10;;;9.00;99.90;;;;;;5031259;28;20193;-62
2023/12/25 04:10:10;;;;;;;0.70;0.10;;;9.00;99.90;;;;;;5038055;28;20195;-62
2023/12/25 04:12:37;;;;;;;0.20;0.20;;;8.90;99.90;;;;;;5048681;28;20934;-62
2023/12/25 04:15:07;;;;;;;0.67;0.10;;;8.90;99.90;;;;;;5045642;28;20207;-62
2023/12/25 04:17:34;;;;;;;1.53;0.30;;;8.90;99.90;;;;;;5052653;28;20751;-61
2023/12/25 04:20:01;;;;;;;0.37;0.13;;;8.90;99.90;;;;;;5033209;28;20277;-62
2023/12/25 04:22:28;;;;;;;0.17;0.17;;;9.00;99.90;;;;;;5031357;28;20216;-62
2023/12/25 04:24:55;;;;;;;0.23;0.20;;;9.00;99.90;;;;;;5045652;28;20672;-62
2023/12/25 04:27:23;;;;;;;0.73;0.33;;;9.00;99.90;;;;;;5032831;28;20205;-62
2023/12/25 04:29:50;;;;;;;0.10;0.10;;;8.90;99.90;;;;;;5031570;28;20205;-62
2023/12/25 04:32:17;;;;;;;0.00;0.00;;;8.90;99.90;;;;;;5028904;28;20306;-62
2023/12/25 04:34:44;;;;;;;0.20;0.20;;;8.90;99.90;;;;;;5042073;28;20233;-62
2023/12/25 04:37:11;;;;;;;0.20;0.20;;;8.80;99.90;;;;;;5033468;28;20357;-62
2023/12/25 04:39:38;;;;;;;0.30;0.30;;;8.90;99.90;;;;;;5045095;28;20669;-61
2023/12/25 04:42:06;;;;;;;1.13;0.20;;;8.90;99.90;;;;;;5021395;28;20200;-62
2023/12/25 04:44:34;;;;;;;0.13;0.10;;;9.10;99.90;;;;;;5032435;23;20232;-60
2023/12/25 04:47:01;;;;;;;0.10;0.10;;;9.10;99.90;;;;;;4995348;28;20206;-60
2023/12/25 04:49:28;;;;;;;1.33;0.20;;;9.10;99.90;;;;;;4992809;28;20256;-61
2023/12/25 04:51:55;;;;;;;1.13;0.20;;;9.10;99.90;;;;;;5002566;28;20275;-61
2023/12/25 04:54:22;;;;;;;2.80;0.20;;;9.10;99.90;;;;;;5004890;28;20705;-61
2023/12/25 04:56:52;;;;;;;0.23;0.23;;;9.10;99.90;;;;;;5013003;28;20213;-61
2023/12/25 04:59:20;;;;;;;0.73;0.20;;;9.00;99.90;;;;;;5012667;28;20279;-61
2023/12/25 05:01:50;;;;;;;0.10;0.10;;;9.00;99.90;;;;;;5002772;28;20230;-61
2023/12/25 05:04:17;;;;;;;0.53;0.20;;;9.00;99.90;;;;;;5004394;28;20327;-61
2023/12/25 05:06:44;;;;;;;1.17;0.10;;;8.90;99.90;;;;;;4992084;28;20648;-61
2023/12/25 05:09:11;;;;;;;0.20;0.20;;;8.80;99.90;;;;;;4990949;28;20736;-61
2023/12/25 05:11:38;;;;;;;0.10;0.10;;;8.80;99.90;;;;;;5001927;28;20237;-61
2023/12/25 05:14:05;;;;;;;0.80;0.20;;;8.80;99.90;;;;;;5005668;28;20294;-61
2023/12/25 05:16:32;;;;;;;0.10;0.10;;;8.80;99.90;;;;;;5007302;28;20552;-61
2023/12/25 05:19:00;;;;;;;0.10;0.10;;;8.80;99.90;;;;;;5003244;28;20208;-61
2023/12/25 05:21:27;;;;;;;0.10;0.10;;;8.80;99.90;;;;;;5005107;28;20202;-61
2023/12/25 05:23:54;;;;;;;0.10;0.10;;;8.80;99.90;;;;;;5001000;28;20221;-61
2023/12/25 05:26:21;;;;;;;0.10;0.10;;;8.80;99.90;;;;;;4992996;28;20727;-61
2023/12/25 05:28:48;;;;;;;0.10;0.10;;;8.70;99.90;;;;;;4991013;28;20262;-61
2023/12/25 05:31:15;;;;;;;0.23;0.20;;;8.60;99.90;;;;;;4989919;28;20218;-61
2023/12/25 05:33:42;;;;;;;0.20;0.20;;;8.70;99.90;;;;;;4993595;28;20276;-61
2023/12/25 05:36:11;;;;;;;0.20;0.20;;;8.70;99.90;;;;;;4999186;28;20202;-61
2023/12/25 05:38:37;;;;;;;0.20;0.20;;;8.70;99.90;;;;;;4992137;28;20633;-61
2023/12/25 05:41:05;;;;;;;0.20;0.20;;;8.70;99.90;;;;;;4992482;28;20200;-61
2023/12/25 05:43:32;;;;;;;0.20;0.17;;;8.70;99.90;;;;;;4992011;28;20273;-61
2023/12/25 05:45:58;;;;;;;0.20;0.20;;;8.70;99.90;;;;;;4991915;28;20249;-62
2023/12/25 05:48:25;;;;;;;0.37;0.37;;;8.60;99.90;;;;;;4992725;28;20197;-61
2023/12/25 05:50:53;;;;;;;0.40;0.20;;;8.60;99.90;;;;;;4992179;28;20253;-60
2023/12/25 05:53:21;;;;;;;0.30;0.30;;;8.60;99.90;;;;;;4991365;28;20283;-63
2023/12/25 05:55:48;;;;;;;0.27;0.27;;;8.60;99.90;;;;;;4992658;28;20218;-60
2023/12/25 05:58:15;;;;;;;0.10;0.10;;;8.50;99.90;;;;;;4992031;28;20783;-60
2023/12/25 06:00:42;;;;;;;0.50;0.13;;;8.50;99.90;;;;;;4990970;28;20740;-62
2023/12/25 06:03:09;;;;;;;0.10;0.10;;;8.50;99.90;;;;;;4991865;28;20272;-62
2023/12/25 06:05:36;;;;;;;0.10;0.10;;;8.60;99.90;;;;;;4991826;28;20208;-62
2023/12/25 06:08:03;;;;;;;0.10;0.10;;;;;;;;;;4992011;28;20601;-62
2023/12/25 06:10:32;;;;;;;1.57;0.20;;;;;;;;;;4999894;28;20272;-62
2023/12/25 06:12:59;;;;;;;0.20;0.20;;;8.60;99.90;;;;;;4991369;28;20272;-62
2023/12/25 06:15:26;;;;;;;1.00;0.80;;;8.60;99.90;;;;;;4991512;28;20268;-62
2023/12/25 06:17:53;;;;;;;0.87;0.50;;;8.50;99.90;;;;;;4991910;28;20632;-62
2023/12/25 06:20:20;;;;;;;0.50;0.50;;;8.50;99.90;;;;;;4991731;28;20203;-62
2023/12/25 06:22:47;;;;;;;0.33;0.23;;;8.50;99.90;;;;;;4991940;28;20203;-62
2023/12/25 06:25:14;;;;;;;0.20;0.20;;;8.50;99.90;;;;;;4992286;28;20625;-62
2023/12/25 06:27:43;;;;;;;0.57;0.23;;;8.50;99.90;;;;;;4992111;28;20279;-60
2023/12/25 06:30:10;;;;;;;0.20;0.20;;;8.40;99.90;;;;;;4992905;28;20281;-62
2023/12/25 06:32:37;;;;;;;0.40;0.20;;;8.40;99.90;;;;;;4991416;28;20429;-62
2023/12/25 06:35:06;;;;;;;0.10;0.10;;;8.50;99.90;;;;;;4993256;28;20201;-62
2023/12/25 06:37:33;;;;;;;3.60;0.30;;;8.50;99.90;;;;;;4995027;28;20589;-62
2023/12/25 06:40:00;;;;;;;0.10;0.10;;;8.50;99.90;;;;;;4992853;28;20214;-60
2023/12/25 06:42:27;;;;;;;0.20;0.20;;;8.40;99.90;;;;;;4994987;28;20198;-60
2023/12/25 06:44:55;;;;;;;0.30;0.20;;;8.40;99.90;;;;;;4995336;28;20233;-60
2023/12/25 06:47:22;;;;;;;2.53;0.30;;;8.40;99.90;;;;;;4997816;28;20205;-60
2023/12/25 06:49:49;;;;;;;0.10;0.10;;;8.40;99.90;;;;;;4996617;28;20666;-60
2023/12/25 06:52:16;;;;;;;0.20;0.20;;;8.40;99.90;;;;;;4995748;28;20233;-60
2023/12/25 06:54:43;;;;;;;0.30;0.30;;;8.40;99.90;;;;;;4995640;28;20229;-60
2023/12/25 06:57:11;;;;;;;0.33;0.20;;;8.30;99.90;;;;;;4995693;28;20208;-60
2023/12/25 06:59:38;;;;;;;0.20;0.20;;;8.30;99.90;;;;;;4994288;28;20263;-60
2023/12/25 07:02:07;;;;;;;0.20;0.20;;;8.30;99.90;;;;;;4994486;28;20617;-60
2023/12/25 07:04:34;;;;;;;0.20;0.20;;;8.30;99.90;;;;;;4995149;28;20226;-60
2023/12/25 07:07:01;;;;;;;0.20;0.20;;;8.40;99.90;;;;;;4995545;28;20202;-60
2023/12/25 07:09:28;;;;;;;0.57;0.20;;;8.40;99.90;;;;;;4995229;28;20326;-60
2023/12/25 07:11:59;;;;;;;1.80;0.30;;;8.30;99.90;;;;;;4995022;28;20202;-60
2023/12/25 07:14:26;;;;;;;0.20;0.20;;;8.40;99.90;;;;;;4995256;28;20704;-60
2023/12/25 07:16:56;;;;;;;0.20;0.20;;;8.40;99.90;;;;;;4994988;28;20670;-60
2023/12/25 07:19:24;;;;;;;0.33;0.20;;;8.30;99.90;;;;;;4994511;28;20203;-60
2023/12/25 07:21:51;;;;;;;0.23;0.23;;;8.30;99.90;;;;;;4995262;28;20621;-60
2023/12/25 07:24:18;;;;;;;0.50;0.30;;;8.30;99.90;;;;;;4995060;28;20759;-60
2023/12/25 07:26:45;;;;;;;0.30;0.30;;;8.40;99.90;;;;;;4994954;28;20280;-60
2023/12/25 07:29:12;;;;;;;0.30;0.30;;;8.40;99.90;;;;;;4994667;28;20202;-63
2023/12/25 07:31:41;;;;;;;0.20;0.20;;;8.40;99.90;;;;;;4994820;28;20218;-60
2023/12/25 07:34:08;;;;;;;0.20;0.20;;;8.40;99.90;;;;;;4994684;28;20325;-60
2023/12/25 07:36:36;;;;;;;0.40;0.23;;;8.40;99.90;;;;;;4994937;28;20257;-60
2023/12/25 07:39:05;;;;;;;0.80;0.80;;;8.40;99.90;;;;;;4994547;28;20557;-60
2023/12/25 07:41:32;;;;;;;0.50;0.50;;;8.50;99.90;;;;;;4992297;28;20281;-62
2023/12/25 07:44:00;;;;;;;0.50;0.50;;;8.60;99.90;;;;;;4994036;28;20779;-61
2023/12/25 07:46:28;;;;;;;0.70;0.70;;;8.60;99.90;;;;;;4992673;28;20205;-61
2023/12/25 07:48:55;;;;;;;0.50;0.50;;;8.70;99.90;;;;;;4994225;28;20260;-61
2023/12/25 07:51:22;;;;;;;0.40;0.40;;;8.70;99.90;;;;;;4995282;28;20201;-61
2023/12/25 07:53:49;;;;;;;0.50;0.47;;;8.80;99.90;;;;;;4993969;28;20237;-61
2023/12/25 07:56:16;;;;;;;1.23;0.30;;;8.80;99.90;;;;;;4994440;28;20234;-61
2023/12/25 07:58:43;;;;;;;0.93;0.90;;;8.80;99.90;;;;;;4995549;28;20228;-61
2023/12/25 08:01:12;;;;;;;1.07;1.07;;;8.90;99.90;;;;;;4994596;28;20202;-61
2023/12/25 08:03:39;;;;;;;1.90;0.80;;;8.90;99.90;;;;;;4994158;28;20240;-61
2023/12/25 08:06:07;;;;;;;2.57;1.47;;;8.90;99.90;;;;;;4994589;28;20287;-61
2023/12/25 08:08:34;;;;;;;1.53;1.13;;;8.90;99.90;;;;;;4994130;28;20306;-61
2023/12/25 08:11:03;;;;;;;1.30;0.97;;;9.10;99.90;;;;;;4993947;28;20618;-61
2023/12/25 08:13:30;;;;;;;0.77;0.73;;;9.20;99.90;;;;;;4997499;28;20240;-61
2023/12/25 08:15:57;;;;;;;0.57;0.50;;;9.30;99.90;;;;;;4994140;28;20233;-61
2023/12/25 08:18:24;;;;;;;1.03;0.57;;;9.40;99.90;;;;;;4992373;28;20209;-61
2023/12/25 08:20:51;;;;;;;0.43;0.43;;;9.50;99.90;;;;;;4991472;28;20202;-60
2023/12/25 08:23:18;;;;;;;0.57;0.57;;;9.60;99.90;;;;;;4994160;28;20225;-60
2023/12/25 08:25:45;;;;;;;0.47;0.37;;;9.80;99.90;;;;;;4991586;28;20205;-60
2023/12/25 08:28:14;;;;;;;0.23;0.23;;;10.00;99.90;;;;;;4993840;28;20718;-61
2023/12/25 08:30:41;;;;;;;0.50;0.50;;;10.20;99.90;;;;;;4993458;28;20641;-61
2023/12/25 08:33:08;;;;;;;0.63;0.20;;;10.40;99.90;;;;;;4993467;28;20806;-61
2023/12/25 08:35:35;;;;;;;2.00;0.90;;;10.60;99.90;;;;;;4993730;28;20217;-61
2023/12/25 08:38:02;;;;;;;2.00;1.53;;;10.50;99.90;;;;;;4993030;28;20198;-60
2023/12/25 08:40:29;;;;;;;1.57;1.10;;;10.50;99.90;;;;;;4986698;28;20645;-60
2023/12/25 08:42:56;;;;;;;1.43;1.33;;;10.40;99.90;;;;;;4983913;28;20296;-62
2023/12/25 08:45:25;;;;;;;1.23;1.23;;;10.30;99.90;;;;;;4992123;28;20206;-61
2023/12/25 08:47:52;;;;;;;1.27;1.17;;;10.30;99.90;;;;;;4991886;28;20305;-61
2023/12/25 08:50:19;;;;;;;1.60;0.50;;;10.30;99.90;;;;;;4993526;28;20212;-60
2023/12/25 08:52:47;;;;;;;0.40;0.40;;;10.30;99.90;;;;;;4993386;28;20237;-60
2023/12/25 08:55:14;;;;;;;1.10;1.10;;;10.40;99.90;;;;;;4992205;28;20205;-61
2023/12/25 08:57:41;;;;;;;0.73;0.73;;;10.40;99.90;;;;;;4990542;28;20585;-61
2023/12/25 09:00:15;;;;;;;1.17;1.07;;;10.40;99.90;;;;;;4991278;28;20210;-60
2023/12/25 09:02:44;;;;;;;2.00;1.80;;;10.50;99.90;;;;;;4991501;28;20197;-59
2023/12/25 09:05:11;;;;;;;1.77;1.67;;;10.50;99.90;;;;;;4986725;28;20257;-60
2023/12/25 09:07:38;;;;;;;1.17;1.07;;;10.70;99.90;;;;;;4993853;28;20234;-59
2023/12/25 09:10:06;;;;;;;0.53;0.53;;;11.00;99.90;;;;;;4983408;28;20205;-60
2023/12/25 09:12:33;;;;;;;2.63;0.93;;;11.20;99.90;;;;;;4990841;28;20242;-60
2023/12/25 09:15:01;;;;;;;0.80;0.80;;;11.40;99.90;;;;;;4990820;28;20692;-60
2023/12/25 09:17:31;;;;;;;0.63;0.63;;;11.40;99.90;;;;;;4995583;28;20214;-60
2023/12/25 09:19:59;;;;;;;0.80;0.80;;;11.30;99.90;;;;;;4992301;28;20253;-61
2023/12/25 09:22:27;;;;;;;0.70;0.70;;;11.20;99.90;;;;;;4991689;28;20207;-60
2023/12/25 09:24:54;;;;;;;2.27;1.63;;;11.20;99.90;;;;;;4991582;28;20218;-61
2023/12/25 09:27:21;;;;;;;1.83;1.40;;;11.30;99.90;;;;;;4994714;28;20269;-60
2023/12/25 09:29:48;;;;;;;3.17;1.13;;;11.50;99.90;;;;;;4990636;28;20215;-60
2023/12/25 09:32:15;;;;;;;0.47;0.47;;;11.80;99.90;;;;;;4989421;28;20206;-60
2023/12/25 09:34:42;;;;;;;0.50;0.50;;;12.10;99.90;;;;;;4991030;28;20280;-60
2023/12/25 09:37:10;;;;;;;0.40;0.40;;;12.20;99.90;;;;;;4994271;28;20206;-60
2023/12/25 09:39:37;;;;;;;1.23;0.37;;;12.50;99.90;;;;;;4992029;28;20730;-60
2023/12/25 09:42:05;;;;;;;0.40;0.40;;;12.60;99.90;;;;;;4992439;28;20564;-60
2023/12/25 09:44:33;;;;;;;1.03;0.50;;;12.60;99.90;;;;;;4992445;28;20324;-60
2023/12/25 09:47:00;;;;;;;0.60;0.20;;;12.60;99.90;;;;;;4995733;28;20275;-60
2023/12/25 09:49:28;;;;;;;1.50;1.40;;;12.70;99.90;;;;;;4989866;28;20208;-60
2023/12/25 09:51:58;;;;;;;0.13;0.13;;;12.70;99.90;;;;;;4992968;28;20636;-59
2023/12/25 09:54:27;;;;;;;0.43;0.40;;;12.80;99.90;;;;;;4996726;28;20647;-60
2023/12/25 09:56:55;;;;;;;0.37;0.30;;;12.80;99.90;;;;;;4991792;28;20204;-60
2023/12/25 09:59:23;;;;;;;0.30;0.30;;;12.80;99.90;;;;;;4993548;28;20207;-60
2023/12/25 10:01:55;;;;;;;0.80;0.30;;;12.90;99.90;;;;;;4991606;28;20628;-61
2023/12/25 10:04:22;;;;;;;0.40;0.30;;;13.00;99.90;;;;;;4991305;28;20351;-60
2023/12/25 10:06:49;;;;;;;0.30;0.30;;;13.10;99.90;;;;;;4993197;28;20729;-59
2023/12/25 10:09:16;;;;;;;0.50;0.40;;;13.20;99.90;;;;;;4990043;28;20599;-60
2023/12/25 10:11:45;;;;;;;0.60;0.40;;;13.20;99.90;;;;;;4998933;28;20203;-60
2023/12/25 10:14:12;;;;;;;0.40;0.40;;;13.20;99.90;;;;;;4993716;28;20222;-61
2023/12/25 10:16:39;;;;;;;0.30;0.30;;;13.40;99.90;;;;;;4991540;28;20200;-60
2023/12/25 10:19:06;;;;;;;0.60;0.60;;;13.00;99.90;;;;;;4985209;28;20202;-60
2023/12/25 10:21:43;;;;;;;0.50;0.50;;;13.50;99.90;;;;;;4990893;28;20206;-61
2023/12/25 10:24:14;;;;;;;1.40;0.70;;;13.50;99.90;;;;;;4978316;28;20220;-60
2023/12/25 10:26:41;;;;;;;0.50;0.50;;;13.70;99.90;;;;;;4996505;28;20277;-60
2023/12/25 10:29:10;;;;;;;0.40;0.40;;;13.80;99.90;;;;;;4990170;28;20232;-60
2023/12/25 10:31:38;;;;;;;0.40;0.40;;;13.90;99.90;;;;;;4999174;28;20257;-60
2023/12/25 10:34:05;;;;;;;0.90;0.40;;;14.00;99.90;;;;;;4990411;28;20251;-60
2023/12/25 10:36:33;;;;;;;0.50;0.50;;;14.30;99.90;;;;;;4991008;28;20668;-59
2023/12/25 10:39:01;;;;;;;2.13;1.10;;;14.50;99.90;;;;;;4989888;28;20207;-60
2023/12/25 10:41:32;;;;;;;0.60;0.60;;;14.30;99.90;;;;;;4991646;28;20696;-60
2023/12/25 10:44:00;;;;;;;0.50;0.50;;;14.30;99.90;;;;;;4993893;28;20230;-59
2023/12/25 10:46:31;;;;;;;0.50;0.40;;;14.00;99.90;;;;;;4991419;28;20204;-60
2023/12/25 10:48:58;;;;;;;2.30;0.37;;;13.70;99.90;;;;;;4990615;28;20235;-60
2023/12/25 10:51:28;;;;;;;1.60;0.37;;;13.60;99.90;;;;;;4990270;28;20278;-60
2023/12/25 10:53:59;;;;;;;1.00;0.40;;;13.30;99.90;;;;;;4989948;28;20691;-60
2023/12/25 10:56:27;;;;;;;0.67;0.50;;;13.30;99.90;;;;;;4991812;28;20672;-60
2023/12/25 10:58:58;;;;;;;0.50;0.40;;;13.40;99.90;;;;;;4991218;28;20214;-60
2023/12/25 11:01:28;;;;;;;0.47;0.47;;;;;;;;;;4990318;28;20211;-60
2023/12/25 11:03:56;;;;;;;0.50;0.50;;;13.30;99.90;;;;;;4993434;28;20273;-60
2023/12/25 11:06:24;;;;;;;0.30;0.30;;;13.30;99.90;;;;;;4992385;28;20207;-59
2023/12/25 11:08:51;;;;;;;0.60;0.60;;;13.20;99.90;;;;;;4991128;28;20746;-60
2023/12/25 11:11:19;;;;;;;0.50;0.40;;;13.40;99.90;;;;;;4992754;28;20232;-60
2023/12/25 11:13:46;;;;;;;1.40;0.27;;;13.60;99.90;;;;;;4993553;28;20281;-60
2023/12/25 11:16:14;;;;;;;0.30;0.30;;;13.30;99.90;;;;;;4990825;28;20210;-60
2023/12/25 11:18:41;;;;;;;0.73;0.30;;;13.30;99.90;;;;;;4989829;28;20675;-61
2023/12/25 11:21:12;;;;;;;0.40;0.40;;;13.50;99.90;;;;;;4989264;28;20208;-61
2023/12/25 11:23:41;;;;;;;1.60;0.40;;;13.40;99.90;;;;;;4986037;28;20239;-61
2023/12/25 11:26:12;;;;;;;0.40;0.40;;;13.50;99.90;;;;;;4990673;28;20204;-61
2023/12/25 11:28:42;;;;;;;1.30;0.43;;;13.40;99.90;;;;;;5019412;23;20287;-60
2023/12/25 11:31:09;;;;;;;0.40;0.40;;;13.10;99.90;;;;;;5014156;28;20296;-61
2023/12/25 11:33:46;;;;;;;0.40;0.40;;;13.10;99.90;;;;;;5013501;28;20296;-60
2023/12/25 11:36:15;;;;;;;0.63;0.43;;;13.00;99.90;;;;;;5012760;28;20268;-61
2023/12/25 11:38:45;;;;;;;0.47;0.40;;;12.50;99.90;;;;;;5012638;28;20292;-61
2023/12/25 11:41:17;;;;;;;0.77;0.40;;;12.10;99.90;;;;;;5015888;28;20724;-60
2023/12/25 11:43:44;;;;;;;1.17;0.20;;;11.80;99.90;;;;;;5014891;28;20237;-60
2023/12/25 11:46:16;;;;;;;0.30;0.30;;;11.60;99.90;;;;;;5013957;28;20206;-61
2023/12/25 11:48:44;;;;;;;1.37;0.40;;;11.40;99.90;;;;;;5012209;28;20300;-60
2023/12/25 11:51:24;;;;;;;0.60;0.40;;;11.20;99.90;;;;;;5012549;28;20199;-60
2023/12/25 11:53:58;;;;;;;1.13;0.30;;;11.10;99.90;;;;;;5012893;28;20724;-61
2023/12/25 11:56:25;;;;;;;1.17;0.47;;;11.10;99.90;;;;;;5012223;28;20593;-61
2023/12/25 11:58:53;;;;;;;0.33;0.33;;;11.00;99.90;;;;;;5012946;28;20249;-61
2023/12/25 12:01:22;;;;;;;0.30;0.30;;;11.10;99.90;;;;;;5005838;28;20663;-61
2023/12/25 12:03:50;;;;;;;1.20;0.57;;;11.20;99.90;;;;;;5005378;28;20468;-61
2023/12/25 12:06:18;;;;;;;0.50;0.30;;;11.40;99.90;;;;;;5004389;28;20272;-61
2023/12/25 12:08:47;;;;;;;0.60;0.60;;;11.40;99.90;;;;;;5007687;28;20208;-61
2023/12/25 12:11:14;;;;;;;0.87;0.50;;;11.50;99.90;;;;;;5011442;28;20235;-61
2023/12/25 12:13:42;;;;;;;0.30;0.30;;;;;;;;;;5008042;28;20260;-61
2023/12/25 12:16:09;;;;;;;3.10;0.50;;;11.50;99.90;;;;;;5012050;28;20705;-61
2023/12/25 12:18:37;;;;;;;0.40;0.40;;;11.60;99.90;;;;;;5012107;28;20209;-60
2023/12/25 12:21:04;;;;;;;0.30;0.30;;;11.50;99.90;;;;;;5011462;28;20278;-61
2023/12/25 12:23:32;;;;;;;1.03;0.33;;;11.40;99.90;;;;;;5012433;28;20205;-61
2023/12/25 12:26:00;;;;;;;0.97;0.20;;;11.30;99.90;;;;;;5011138;28;20291;-61
2023/12/25 12:28:28;;;;;;;0.63;0.43;;;11.10;99.90;;;;;;5011529;28;20214;-61
2023/12/25 12:30:55;;;;;;;4.30;0.57;;;;;;;;;;5007986;28;20241;-61
2023/12/25 12:33:23;;;;;;;0.40;0.40;;;10.90;99.90;;;;;;5007624;28;20212;-61
2023/12/25 12:35:51;;;;;;;0.57;0.57;;;11.20;99.90;;;;;;5012127;28;20233;-60
2023/12/25 12:38:18;;;;;;;0.30;0.30;;;11.30;99.90;;;;;;5012171;28;20210;-60
2023/12/25 12:40:45;;;;;;;0.70;0.57;;;11.30;99.90;;;;;;5013534;28;20233;-60
2023/12/25 12:43:16;;;;;;;1.47;0.43;;;11.40;99.90;;;;;;5004775;28;20209;-60
2023/12/25 12:45:43;;;;;;;0.60;0.40;;;11.30;99.90;;;;;;5011893;28;20281;-62
2023/12/25 12:48:11;;;;;;;0.60;0.60;;;11.30;99.90;;;;;;5011769;28;20297;-61
2023/12/25 12:50:38;;;;;;;0.40;0.40;;;11.30;99.90;;;;;;5012137;28;20222;-60
2023/12/25 12:53:05;;;;;;;0.60;0.40;;;;;;;;;;5010836;28;20202;-61
2023/12/25 12:55:36;;;;;;;0.40;0.40;;;11.50;99.90;;;;;;5012161;28;20221;-60
2023/12/25 12:58:03;;;;;;;0.60;0.47;;;11.20;99.90;;;;;;5011229;28;20210;-61
2023/12/25 13:00:31;;;;;;;0.70;0.30;;;11.20;99.90;;;;;;5010763;28;20229;-60
2023/12/25 13:02:59;;;;;;;0.37;0.37;;;10.80;99.90;;;;;;5011980;28;20628;-61
2023/12/25 13:05:26;;;;;;;0.50;0.50;;;;;;;;;;5009161;28;20297;-60
2023/12/25 13:07:53;;;;;;;1.67;0.40;;;10.80;99.90;;;;;;5011083;28;20245;-60
2023/12/25 13:10:20;;;;;;;0.87;0.60;;;10.90;99.90;;;;;;5007003;28;20308;-61